sensor_id;sensor_type;location;lat;lon;timestamp;P1;durP1;ratioP1;P2;durP2;ratioP2
3601;SDS011;1815;50.950;6.920;2023-03-01T00:01:31;5.23;;;3.83;;
3601;SDS011;1815;50.950;6.920;2023-03-01T00:03:57;5.37;;;3.87;;
3601;SDS011;1815;50.950;6.920;2023-03-01T00:06:24;6.55;;;3.60;;
3601;SDS011;1815;50.950;6.920;2023-03-01T00:08:50;4.88;;;3.30;;
3601;SDS011;1815;50.950;6.920;2023-03-01T00:11:17;5.23;;;3.00;;
3601;SDS011;1815;50.950;6.920;2023-03-01T00:13:46;5.10;;;3.60;;
3601;SDS011;1815;50.950;6.920;2023-03-01T00:16:15;4.32;;;3.30;;
3601;SDS011;1815;50.950;6.920;2023-03-01T00:18:43;5.75;;;3.55;;
3601;SDS011;1815;50.950;6.920;2023-03-01T00:21:09;3.97;;;3.35;;
3601;SDS011;1815;50.950;6.920;2023-03-01T00:23:35;4.25;;;2.78;;
3601;SDS011;1815;50.950;6.920;2023-03-01T00:26:04;4.63;;;3.22;;
3601;SDS011;1815;50.950;6.920;2023-03-01T00:28:31;5.20;;;3.08;;
3601;SDS011;1815;50.950;6.920;2023-03-01T00:31:02;6.70;;;4.40;;
3601;SDS011;1815;50.950;6.920;2023-03-01T00:33:31;6.35;;;3.88;;
3601;SDS011;1815;50.950;6.920;2023-03-01T00:35:59;7.37;;;4.13;;
3601;SDS011;1815;50.950;6.920;2023-03-01T00:38:26;5.90;;;4.00;;
3601;SDS011;1815;50.950;6.920;2023-03-01T00:40:52;5.70;;;3.47;;
3601;SDS011;1815;50.950;6.920;2023-03-01T00:43:18;3.83;;;3.40;;
3601;SDS011;1815;50.950;6.920;2023-03-01T00:45:44;4.53;;;3.50;;
3601;SDS011;1815;50.950;6.920;2023-03-01T00:48:09;8.33;;;3.27;;
3601;SDS011;1815;50.950;6.920;2023-03-01T00:50:35;2.97;;;2.67;;
3601;SDS011;1815;50.950;6.920;2023-03-01T00:53:01;3.83;;;2.87;;
3601;SDS011;1815;50.950;6.920;2023-03-01T00:55:27;6.88;;;3.58;;
3601;SDS011;1815;50.950;6.920;2023-03-01T00:57:53;4.60;;;3.80;;
3601;SDS011;1815;50.950;6.920;2023-03-01T01:00:18;5.40;;;3.00;;
3601;SDS011;1815;50.950;6.920;2023-03-01T01:02:46;4.38;;;3.47;;
3601;SDS011;1815;50.950;6.920;2023-03-01T01:05:12;4.65;;;3.00;;
3601;SDS011;1815;50.950;6.920;2023-03-01T01:07:38;5.50;;;3.17;;
3601;SDS011;1815;50.950;6.920;2023-03-01T01:10:04;3.72;;;3.28;;
3601;SDS011;1815;50.950;6.920;2023-03-01T01:12:31;3.78;;;3.20;;
3601;SDS011;1815;50.950;6.920;2023-03-01T01:14:57;4.68;;;3.30;;
3601;SDS011;1815;50.950;6.920;2023-03-01T01:17:23;4.70;;;3.40;;
3601;SDS011;1815;50.950;6.920;2023-03-01T01:19:49;4.03;;;2.80;;
3601;SDS011;1815;50.950;6.920;2023-03-01T01:22:15;2.97;;;2.40;;
3601;SDS011;1815;50.950;6.920;2023-03-01T01:24:40;4.93;;;3.80;;
3601;SDS011;1815;50.950;6.920;2023-03-01T01:27:06;8.27;;;3.43;;
3601;SDS011;1815;50.950;6.920;2023-03-01T01:29:32;4.50;;;3.50;;
3601;SDS011;1815;50.950;6.920;2023-03-01T01:31:58;6.03;;;3.17;;
3601;SDS011;1815;50.950;6.920;2023-03-01T01:34:24;4.50;;;2.80;;
3601;SDS011;1815;50.950;6.920;2023-03-01T01:36:53;7.43;;;2.60;;
3601;SDS011;1815;50.950;6.920;2023-03-01T01:39:19;4.68;;;3.90;;
3601;SDS011;1815;50.950;6.920;2023-03-01T01:41:45;4.93;;;3.03;;
3601;SDS011;1815;50.950;6.920;2023-03-01T01:46:51;4.00;;;3.60;;
3601;SDS011;1815;50.950;6.920;2023-03-01T01:52:05;4.43;;;3.53;;
3601;SDS011;1815;50.950;6.920;2023-03-01T01:57:07;5.70;;;3.80;;
3601;SDS011;1815;50.950;6.920;2023-03-01T01:59:37;5.43;;;3.00;;
3601;SDS011;1815;50.950;6.920;2023-03-01T02:02:04;4.65;;;3.47;;
3601;SDS011;1815;50.950;6.920;2023-03-01T02:04:49;5.30;;;3.55;;
3601;SDS011;1815;50.950;6.920;2023-03-01T02:07:22;4.82;;;3.42;;
3601;SDS011;1815;50.950;6.920;2023-03-01T02:09:50;4.45;;;3.50;;
3601;SDS011;1815;50.950;6.920;2023-03-01T02:12:18;5.70;;;4.10;;
3601;SDS011;1815;50.950;6.920;2023-03-01T02:14:46;4.65;;;3.42;;
3601;SDS011;1815;50.950;6.920;2023-03-01T02:17:14;7.38;;;4.13;;
3601;SDS011;1815;50.950;6.920;2023-03-01T02:22:22;8.95;;;3.55;;
3601;SDS011;1815;50.950;6.920;2023-03-01T02:30:38;5.57;;;4.15;;
3601;SDS011;1815;50.950;6.920;2023-03-01T02:33:25;4.65;;;3.92;;
3601;SDS011;1815;50.950;6.920;2023-03-01T02:35:53;5.95;;;3.65;;
3601;SDS011;1815;50.950;6.920;2023-03-01T02:38:21;5.72;;;3.70;;
3601;SDS011;1815;50.950;6.920;2023-03-01T02:40:49;5.13;;;4.03;;
3601;SDS011;1815;50.950;6.920;2023-03-01T02:43:16;3.97;;;3.20;;
3601;SDS011;1815;50.950;6.920;2023-03-01T02:45:51;8.98;;;3.33;;
3601;SDS011;1815;50.950;6.920;2023-03-01T02:48:19;5.30;;;3.75;;
3601;SDS011;1815;50.950;6.920;2023-03-01T02:56:51;4.93;;;3.25;;
3601;SDS011;1815;50.950;6.920;2023-03-01T02:59:20;6.70;;;4.57;;
3601;SDS011;1815;50.950;6.920;2023-03-01T03:01:49;5.90;;;4.40;;
3601;SDS011;1815;50.950;6.920;2023-03-01T03:04:16;5.60;;;3.90;;
3601;SDS011;1815;50.950;6.920;2023-03-01T03:06:45;4.78;;;3.45;;
3601;SDS011;1815;50.950;6.920;2023-03-01T03:09:13;4.25;;;3.13;;
3601;SDS011;1815;50.950;6.920;2023-03-01T03:11:40;6.35;;;3.30;;
3601;SDS011;1815;50.950;6.920;2023-03-01T03:14:15;5.15;;;3.40;;
3601;SDS011;1815;50.950;6.920;2023-03-01T03:16:45;4.47;;;3.05;;
3601;SDS011;1815;50.950;6.920;2023-03-01T03:19:13;3.78;;;3.03;;
3601;SDS011;1815;50.950;6.920;2023-03-01T03:21:39;7.70;;;3.70;;
3601;SDS011;1815;50.950;6.920;2023-03-01T03:24:05;4.40;;;3.40;;
3601;SDS011;1815;50.950;6.920;2023-03-01T03:26:31;5.30;;;4.47;;
3601;SDS011;1815;50.950;6.920;2023-03-01T03:28:57;4.70;;;2.90;;
3601;SDS011;1815;50.950;6.920;2023-03-01T03:31:22;4.47;;;3.27;;
3601;SDS011;1815;50.950;6.920;2023-03-01T03:33:48;5.90;;;4.00;;
3601;SDS011;1815;50.950;6.920;2023-03-01T03:36:18;3.83;;;3.30;;
3601;SDS011;1815;50.950;6.920;2023-03-01T03:38:45;7.93;;;3.58;;
3601;SDS011;1815;50.950;6.920;2023-03-01T03:41:11;6.32;;;4.05;;
3601;SDS011;1815;50.950;6.920;2023-03-01T03:43:38;5.38;;;4.22;;
3601;SDS011;1815;50.950;6.920;2023-03-01T03:46:05;5.25;;;4.25;;
3601;SDS011;1815;50.950;6.920;2023-03-01T03:48:36;6.00;;;4.45;;
3601;SDS011;1815;50.950;6.920;2023-03-01T03:51:09;5.20;;;3.83;;
3601;SDS011;1815;50.950;6.920;2023-03-01T03:53:36;6.05;;;3.92;;
3601;SDS011;1815;50.950;6.920;2023-03-01T03:56:02;4.97;;;3.60;;
3601;SDS011;1815;50.950;6.920;2023-03-01T03:58:28;6.00;;;4.35;;
3601;SDS011;1815;50.950;6.920;2023-03-01T04:00:55;6.07;;;4.50;;
3601;SDS011;1815;50.950;6.920;2023-03-01T04:03:22;9.65;;;4.53;;
3601;SDS011;1815;50.950;6.920;2023-03-01T04:05:49;6.40;;;4.53;;
3601;SDS011;1815;50.950;6.920;2023-03-01T04:08:16;7.10;;;4.80;;
3601;SDS011;1815;50.950;6.920;2023-03-01T04:10:46;6.10;;;3.78;;
3601;SDS011;1815;50.950;6.920;2023-03-01T04:13:15;5.65;;;4.20;;
3601;SDS011;1815;50.950;6.920;2023-03-01T04:15:44;5.53;;;4.38;;
3601;SDS011;1815;50.950;6.920;2023-03-01T04:18:18;9.90;;;5.38;;
3601;SDS011;1815;50.950;6.920;2023-03-01T04:20:45;8.00;;;5.50;;
3601;SDS011;1815;50.950;6.920;2023-03-01T04:23:16;7.05;;;4.30;;
3601;SDS011;1815;50.950;6.920;2023-03-01T04:28:19;6.82;;;4.95;;
3601;SDS011;1815;50.950;6.920;2023-03-01T04:30:52;5.13;;;3.88;;
3601;SDS011;1815;50.950;6.920;2023-03-01T04:33:19;6.18;;;4.45;;
3601;SDS011;1815;50.950;6.920;2023-03-01T04:35:45;5.80;;;4.10;;
3601;SDS011;1815;50.950;6.920;2023-03-01T04:38:11;5.50;;;3.63;;
3601;SDS011;1815;50.950;6.920;2023-03-01T04:40:37;7.33;;;5.03;;
3601;SDS011;1815;50.950;6.920;2023-03-01T04:43:03;6.35;;;4.78;;
3601;SDS011;1815;50.950;6.920;2023-03-01T04:45:32;6.32;;;4.10;;
3601;SDS011;1815;50.950;6.920;2023-03-01T04:47:59;8.52;;;5.10;;
3601;SDS011;1815;50.950;6.920;2023-03-01T04:50:26;8.38;;;5.10;;
3601;SDS011;1815;50.950;6.920;2023-03-01T04:52:52;6.18;;;4.82;;
3601;SDS011;1815;50.950;6.920;2023-03-01T04:55:19;7.43;;;5.20;;
3601;SDS011;1815;50.950;6.920;2023-03-01T04:57:45;5.40;;;4.23;;
3601;SDS011;1815;50.950;6.920;2023-03-01T05:00:12;7.85;;;4.25;;
3601;SDS011;1815;50.950;6.920;2023-03-01T05:05:26;5.70;;;5.10;;
3601;SDS011;1815;50.950;6.920;2023-03-01T05:07:58;6.18;;;4.45;;
3601;SDS011;1815;50.950;6.920;2023-03-01T05:10:27;7.10;;;4.53;;
3601;SDS011;1815;50.950;6.920;2023-03-01T05:12:54;8.00;;;4.53;;
3601;SDS011;1815;50.950;6.920;2023-03-01T05:15:22;6.60;;;4.90;;
3601;SDS011;1815;50.950;6.920;2023-03-01T05:17:51;8.95;;;5.30;;
3601;SDS011;1815;50.950;6.920;2023-03-01T05:20:17;8.63;;;5.10;;
3601;SDS011;1815;50.950;6.920;2023-03-01T05:22:43;12.50;;;4.80;;
3601;SDS011;1815;50.950;6.920;2023-03-01T05:25:09;7.27;;;5.17;;
3601;SDS011;1815;50.950;6.920;2023-03-01T05:27:35;5.43;;;4.77;;
3601;SDS011;1815;50.950;6.920;2023-03-01T05:30:01;7.10;;;5.20;;
3601;SDS011;1815;50.950;6.920;2023-03-01T05:32:42;8.10;;;5.25;;
3601;SDS011;1815;50.950;6.920;2023-03-01T05:35:13;6.95;;;5.45;;
3601;SDS011;1815;50.950;6.920;2023-03-01T05:37:44;8.45;;;6.43;;
3601;SDS011;1815;50.950;6.920;2023-03-01T05:40:13;6.30;;;5.20;;
3601;SDS011;1815;50.950;6.920;2023-03-01T05:42:46;8.07;;;5.70;;
3601;SDS011;1815;50.950;6.920;2023-03-01T05:45:18;7.15;;;4.13;;
3601;SDS011;1815;50.950;6.920;2023-03-01T05:47:44;8.00;;;5.35;;
3601;SDS011;1815;50.950;6.920;2023-03-01T05:52:48;7.40;;;5.32;;
3601;SDS011;1815;50.950;6.920;2023-03-01T05:55:19;6.80;;;5.20;;
3601;SDS011;1815;50.950;6.920;2023-03-01T05:57:46;6.93;;;5.80;;
3601;SDS011;1815;50.950;6.920;2023-03-01T06:00:13;10.88;;;5.40;;
3601;SDS011;1815;50.950;6.920;2023-03-01T06:02:40;7.88;;;4.65;;
3601;SDS011;1815;50.950;6.920;2023-03-01T06:05:06;6.00;;;5.07;;
3601;SDS011;1815;50.950;6.920;2023-03-01T06:07:34;7.38;;;5.30;;
3601;SDS011;1815;50.950;6.920;2023-03-01T06:10:00;6.45;;;4.90;;
3601;SDS011;1815;50.950;6.920;2023-03-01T06:12:29;12.48;;;5.95;;
3601;SDS011;1815;50.950;6.920;2023-03-01T06:14:59;7.18;;;5.10;;
3601;SDS011;1815;50.950;6.920;2023-03-01T06:17:25;6.82;;;5.57;;
3601;SDS011;1815;50.950;6.920;2023-03-01T06:19:53;7.72;;;5.18;;
3601;SDS011;1815;50.950;6.920;2023-03-01T06:22:19;9.77;;;5.87;;
3601;SDS011;1815;50.950;6.920;2023-03-01T06:24:45;6.57;;;4.53;;
3601;SDS011;1815;50.950;6.920;2023-03-01T06:27:10;6.77;;;4.87;;
3601;SDS011;1815;50.950;6.920;2023-03-01T06:29:36;9.07;;;6.20;;
3601;SDS011;1815;50.950;6.920;2023-03-01T06:32:02;8.33;;;5.77;;
3601;SDS011;1815;50.950;6.920;2023-03-01T06:34:30;9.45;;;6.18;;
3601;SDS011;1815;50.950;6.920;2023-03-01T06:36:56;10.40;;;6.13;;
3601;SDS011;1815;50.950;6.920;2023-03-01T06:39:21;8.00;;;6.40;;
3601;SDS011;1815;50.950;6.920;2023-03-01T06:41:47;8.83;;;6.53;;
3601;SDS011;1815;50.950;6.920;2023-03-01T06:44:13;10.20;;;5.87;;
3601;SDS011;1815;50.950;6.920;2023-03-01T06:46:39;8.90;;;6.50;;
3601;SDS011;1815;50.950;6.920;2023-03-01T06:49:05;10.20;;;6.72;;
3601;SDS011;1815;50.950;6.920;2023-03-01T06:51:34;10.23;;;6.90;;
3601;SDS011;1815;50.950;6.920;2023-03-01T06:54:05;9.95;;;6.25;;
3601;SDS011;1815;50.950;6.920;2023-03-01T06:56:31;13.45;;;7.25;;
3601;SDS011;1815;50.950;6.920;2023-03-01T06:58:57;7.70;;;5.93;;
3601;SDS011;1815;50.950;6.920;2023-03-01T07:01:23;7.40;;;5.05;;
3601;SDS011;1815;50.950;6.920;2023-03-01T07:03:49;8.97;;;6.63;;
3601;SDS011;1815;50.950;6.920;2023-03-01T07:06:15;8.00;;;5.80;;
3601;SDS011;1815;50.950;6.920;2023-03-01T07:08:41;9.83;;;6.23;;
3601;SDS011;1815;50.950;6.920;2023-03-01T07:11:06;10.53;;;7.90;;
3601;SDS011;1815;50.950;6.920;2023-03-01T07:13:33;9.25;;;7.03;;
3601;SDS011;1815;50.950;6.920;2023-03-01T07:15:59;7.73;;;6.03;;
3601;SDS011;1815;50.950;6.920;2023-03-01T07:18:24;10.40;;;7.40;;
3601;SDS011;1815;50.950;6.920;2023-03-01T07:20:50;9.70;;;6.40;;
3601;SDS011;1815;50.950;6.920;2023-03-01T07:23:16;9.17;;;6.20;;
3601;SDS011;1815;50.950;6.920;2023-03-01T07:25:42;8.30;;;5.90;;
3601;SDS011;1815;50.950;6.920;2023-03-01T07:28:07;7.30;;;5.83;;
3601;SDS011;1815;50.950;6.920;2023-03-01T07:30:33;8.83;;;6.33;;
3601;SDS011;1815;50.950;6.920;2023-03-01T07:32:59;7.80;;;6.27;;
3601;SDS011;1815;50.950;6.920;2023-03-01T07:35:25;12.23;;;7.40;;
3601;SDS011;1815;50.950;6.920;2023-03-01T07:37:52;9.13;;;6.47;;
3601;SDS011;1815;50.950;6.920;2023-03-01T07:40:18;9.60;;;7.00;;
3601;SDS011;1815;50.950;6.920;2023-03-01T07:42:44;9.57;;;7.97;;
3601;SDS011;1815;50.950;6.920;2023-03-01T07:45:10;10.03;;;6.90;;
3601;SDS011;1815;50.950;6.920;2023-03-01T07:47:36;9.30;;;7.15;;
3601;SDS011;1815;50.950;6.920;2023-03-01T07:50:02;9.57;;;6.67;;
3601;SDS011;1815;50.950;6.920;2023-03-01T07:52:29;13.57;;;6.60;;
3601;SDS011;1815;50.950;6.920;2023-03-01T07:54:55;9.80;;;6.60;;
3601;SDS011;1815;50.950;6.920;2023-03-01T07:57:21;11.90;;;8.60;;
3601;SDS011;1815;50.950;6.920;2023-03-01T07:59:47;10.65;;;7.15;;
3601;SDS011;1815;50.950;6.920;2023-03-01T08:02:13;10.20;;;7.80;;
3601;SDS011;1815;50.950;6.920;2023-03-01T08:04:40;8.23;;;6.53;;
3601;SDS011;1815;50.950;6.920;2023-03-01T08:07:07;9.60;;;7.20;;
3601;SDS011;1815;50.950;6.920;2023-03-01T08:09:35;9.10;;;6.57;;
3601;SDS011;1815;50.950;6.920;2023-03-01T08:12:02;12.80;;;7.95;;
3601;SDS011;1815;50.950;6.920;2023-03-01T08:14:29;11.73;;;7.35;;
3601;SDS011;1815;50.950;6.920;2023-03-01T08:16:56;9.27;;;6.70;;
3601;SDS011;1815;50.950;6.920;2023-03-01T08:19:22;9.03;;;8.00;;
3601;SDS011;1815;50.950;6.920;2023-03-01T08:21:48;8.70;;;7.80;;
3601;SDS011;1815;50.950;6.920;2023-03-01T08:24:13;11.97;;;7.40;;
3601;SDS011;1815;50.950;6.920;2023-03-01T08:26:39;10.93;;;7.77;;
3601;SDS011;1815;50.950;6.920;2023-03-01T08:29:05;12.40;;;8.13;;
3601;SDS011;1815;50.950;6.920;2023-03-01T08:31:32;12.17;;;7.90;;
3601;SDS011;1815;50.950;6.920;2023-03-01T08:34:04;8.10;;;6.93;;
3601;SDS011;1815;50.950;6.920;2023-03-01T08:36:36;9.45;;;7.45;;
3601;SDS011;1815;50.950;6.920;2023-03-01T08:39:05;10.77;;;7.57;;
3601;SDS011;1815;50.950;6.920;2023-03-01T08:41:32;10.43;;;8.27;;
3601;SDS011;1815;50.950;6.920;2023-03-01T08:43:58;7.87;;;7.03;;
3601;SDS011;1815;50.950;6.920;2023-03-01T08:46:25;10.13;;;8.13;;
3601;SDS011;1815;50.950;6.920;2023-03-01T08:48:51;11.03;;;8.90;;
3601;SDS011;1815;50.950;6.920;2023-03-01T08:51:18;9.03;;;8.13;;
3601;SDS011;1815;50.950;6.920;2023-03-01T08:53:44;10.20;;;7.30;;
3601;SDS011;1815;50.950;6.920;2023-03-01T08:56:10;11.60;;;7.83;;
3601;SDS011;1815;50.950;6.920;2023-03-01T08:58:36;9.30;;;8.30;;
3601;SDS011;1815;50.950;6.920;2023-03-01T09:01:08;9.27;;;6.47;;
3601;SDS011;1815;50.950;6.920;2023-03-01T09:03:34;9.10;;;7.17;;
3601;SDS011;1815;50.950;6.920;2023-03-01T09:06:01;7.60;;;6.70;;
3601;SDS011;1815;50.950;6.920;2023-03-01T09:08:27;8.30;;;7.40;;
3601;SDS011;1815;50.950;6.920;2023-03-01T09:10:53;6.37;;;5.77;;
3601;SDS011;1815;50.950;6.920;2023-03-01T09:13:19;8.57;;;7.77;;
3601;SDS011;1815;50.950;6.920;2023-03-01T09:15:45;6.30;;;5.70;;
3601;SDS011;1815;50.950;6.920;2023-03-01T09:18:10;7.10;;;5.83;;
3601;SDS011;1815;50.950;6.920;2023-03-01T09:20:36;7.87;;;6.90;;
3601;SDS011;1815;50.950;6.920;2023-03-01T09:23:02;8.10;;;7.30;;
3601;SDS011;1815;50.950;6.920;2023-03-01T09:25:28;7.90;;;6.90;;
3601;SDS011;1815;50.950;6.920;2023-03-01T09:27:54;6.30;;;5.53;;
3601;SDS011;1815;50.950;6.920;2023-03-01T09:30:20;6.83;;;6.00;;
3601;SDS011;1815;50.950;6.920;2023-03-01T09:32:46;8.73;;;6.67;;
3601;SDS011;1815;50.950;6.920;2023-03-01T09:35:12;8.83;;;6.97;;
3601;SDS011;1815;50.950;6.920;2023-03-01T09:37:38;6.20;;;5.60;;
3601;SDS011;1815;50.950;6.920;2023-03-01T09:40:12;6.17;;;4.50;;
3601;SDS011;1815;50.950;6.920;2023-03-01T09:42:48;7.07;;;5.90;;
3601;SDS011;1815;50.950;6.920;2023-03-01T09:45:31;7.17;;;5.47;;
3601;SDS011;1815;50.950;6.920;2023-03-01T09:48:00;6.73;;;5.33;;
3601;SDS011;1815;50.950;6.920;2023-03-01T09:50:28;6.20;;;5.40;;
3601;SDS011;1815;50.950;6.920;2023-03-01T09:53:01;7.10;;;5.50;;
3601;SDS011;1815;50.950;6.920;2023-03-01T09:55:36;7.23;;;4.97;;
3601;SDS011;1815;50.950;6.920;2023-03-01T09:58:47;8.17;;;5.40;;
3601;SDS011;1815;50.950;6.920;2023-03-01T10:09:41;5.60;;;5.00;;
3601;SDS011;1815;50.950;6.920;2023-03-01T10:12:14;7.30;;;6.50;;
3601;SDS011;1815;50.950;6.920;2023-03-01T10:17:44;6.10;;;5.50;;
3601;SDS011;1815;50.950;6.920;2023-03-01T10:20:26;10.10;;;7.30;;
3601;SDS011;1815;50.950;6.920;2023-03-01T10:22:59;7.03;;;6.37;;
3601;SDS011;1815;50.950;6.920;2023-03-01T10:28:29;6.60;;;5.33;;
3601;SDS011;1815;50.950;6.920;2023-03-01T10:31:11;6.93;;;5.47;;
3601;SDS011;1815;50.950;6.920;2023-03-01T10:33:41;8.63;;;5.67;;
3601;SDS011;1815;50.950;6.920;2023-03-01T10:36:08;8.60;;;6.07;;
3601;SDS011;1815;50.950;6.920;2023-03-01T10:38:47;8.03;;;5.97;;
3601;SDS011;1815;50.950;6.920;2023-03-01T10:41:22;6.83;;;5.50;;
3601;SDS011;1815;50.950;6.920;2023-03-01T10:43:56;6.07;;;5.37;;
3601;SDS011;1815;50.950;6.920;2023-03-01T10:46:32;7.40;;;5.97;;
3601;SDS011;1815;50.950;6.920;2023-03-01T10:49:07;6.03;;;5.43;;
3601;SDS011;1815;50.950;6.920;2023-03-01T10:51:39;7.43;;;5.70;;
3601;SDS011;1815;50.950;6.920;2023-03-01T10:54:15;7.50;;;6.57;;
3601;SDS011;1815;50.950;6.920;2023-03-01T10:56:53;6.70;;;5.73;;
3601;SDS011;1815;50.950;6.920;2023-03-01T10:59:36;7.40;;;6.50;;
3601;SDS011;1815;50.950;6.920;2023-03-01T11:02:26;6.70;;;6.07;;
3601;SDS011;1815;50.950;6.920;2023-03-01T11:05:01;6.30;;;5.60;;
3601;SDS011;1815;50.950;6.920;2023-03-01T11:10:24;6.70;;;5.27;;
3601;SDS011;1815;50.950;6.920;2023-03-01T11:13:08;6.40;;;4.90;;
3601;SDS011;1815;50.950;6.920;2023-03-01T11:16:03;4.70;;;4.30;;
3601;SDS011;1815;50.950;6.920;2023-03-01T11:18:32;6.33;;;5.33;;
3601;SDS011;1815;50.950;6.920;2023-03-01T11:20:58;6.50;;;5.00;;
3601;SDS011;1815;50.950;6.920;2023-03-01T11:23:26;6.53;;;5.87;;
3601;SDS011;1815;50.950;6.920;2023-03-01T11:25:55;5.90;;;5.23;;
3601;SDS011;1815;50.950;6.920;2023-03-01T11:28:21;5.83;;;4.50;;
3601;SDS011;1815;50.950;6.920;2023-03-01T11:30:51;7.10;;;5.43;;
3601;SDS011;1815;50.950;6.920;2023-03-01T11:36:04;6.27;;;5.67;;
3601;SDS011;1815;50.950;6.920;2023-03-01T11:38:36;7.03;;;6.33;;
3601;SDS011;1815;50.950;6.920;2023-03-01T11:43:51;5.70;;;5.00;;
3601;SDS011;1815;50.950;6.920;2023-03-01T11:48:59;6.10;;;5.50;;
3601;SDS011;1815;50.950;6.920;2023-03-01T11:51:47;6.50;;;5.80;;
3601;SDS011;1815;50.950;6.920;2023-03-01T11:54:30;6.80;;;6.17;;
3601;SDS011;1815;50.950;6.920;2023-03-01T12:20:06;5.57;;;4.93;;
3601;SDS011;1815;50.950;6.920;2023-03-01T12:36:10;7.30;;;5.40;;
3601;SDS011;1815;50.950;6.920;2023-03-01T12:38:55;6.27;;;5.40;;
3601;SDS011;1815;50.950;6.920;2023-03-01T12:41:52;5.67;;;4.63;;
3601;SDS011;1815;50.950;6.920;2023-03-01T12:48:03;6.10;;;5.33;;
3601;SDS011;1815;50.950;6.920;2023-03-01T12:53:46;7.60;;;6.30;;
3601;SDS011;1815;50.950;6.920;2023-03-01T12:56:34;7.07;;;5.40;;
3601;SDS011;1815;50.950;6.920;2023-03-01T12:59:07;7.23;;;4.77;;
3601;SDS011;1815;50.950;6.920;2023-03-01T13:08:34;5.25;;;4.43;;
3601;SDS011;1815;50.950;6.920;2023-03-01T13:11:11;6.60;;;5.75;;
3601;SDS011;1815;50.950;6.920;2023-03-01T13:13:45;6.63;;;5.70;;
3601;SDS011;1815;50.950;6.920;2023-03-01T13:21:47;6.68;;;5.97;;
3601;SDS011;1815;50.950;6.920;2023-03-01T13:32:36;6.97;;;5.72;;
3601;SDS011;1815;50.950;6.920;2023-03-01T13:47:23;10.38;;;6.00;;
3601;SDS011;1815;50.950;6.920;2023-03-01T13:49:57;7.30;;;5.20;;
3601;SDS011;1815;50.950;6.920;2023-03-01T13:52:42;7.70;;;5.32;;
3601;SDS011;1815;50.950;6.920;2023-03-01T13:55:46;6.90;;;6.20;;
3601;SDS011;1815;50.950;6.920;2023-03-01T13:58:22;9.68;;;6.22;;
3601;SDS011;1815;50.950;6.920;2023-03-01T14:01:04;5.95;;;4.55;;
3601;SDS011;1815;50.950;6.920;2023-03-01T14:03:31;6.63;;;4.78;;
3601;SDS011;1815;50.950;6.920;2023-03-01T14:08:31;5.15;;;4.60;;
3601;SDS011;1815;50.950;6.920;2023-03-01T14:19:21;5.47;;;4.47;;
3601;SDS011;1815;50.950;6.920;2023-03-01T14:22:02;5.70;;;4.68;;
3601;SDS011;1815;50.950;6.920;2023-03-01T14:24:54;7.55;;;4.82;;
3601;SDS011;1815;50.950;6.920;2023-03-01T14:27:23;8.68;;;4.50;;
3601;SDS011;1815;50.950;6.920;2023-03-01T14:29:58;7.00;;;4.70;;
3601;SDS011;1815;50.950;6.920;2023-03-01T14:32:27;6.53;;;4.47;;
3601;SDS011;1815;50.950;6.920;2023-03-01T14:34:54;5.68;;;4.25;;
3601;SDS011;1815;50.950;6.920;2023-03-01T14:39:52;6.78;;;4.50;;
3601;SDS011;1815;50.950;6.920;2023-03-01T14:42:19;7.38;;;5.20;;
3601;SDS011;1815;50.950;6.920;2023-03-01T14:44:47;6.07;;;5.00;;
3601;SDS011;1815;50.950;6.920;2023-03-01T14:47:20;6.60;;;5.03;;
3601;SDS011;1815;50.950;6.920;2023-03-01T14:49:59;9.52;;;4.90;;
3601;SDS011;1815;50.950;6.920;2023-03-01T14:52:42;6.15;;;5.55;;
3601;SDS011;1815;50.950;6.920;2023-03-01T14:55:46;6.95;;;4.93;;
3601;SDS011;1815;50.950;6.920;2023-03-01T14:58:09;6.97;;;5.30;;
3601;SDS011;1815;50.950;6.920;2023-03-01T15:00:57;7.22;;;5.20;;
3601;SDS011;1815;50.950;6.920;2023-03-01T15:03:33;7.22;;;5.35;;
3601;SDS011;1815;50.950;6.920;2023-03-01T15:06:06;7.20;;;5.15;;
3601;SDS011;1815;50.950;6.920;2023-03-01T15:08:33;5.97;;;4.38;;
3601;SDS011;1815;50.950;6.920;2023-03-01T15:11:04;6.50;;;5.28;;
3601;SDS011;1815;50.950;6.920;2023-03-01T15:13:42;7.97;;;5.95;;
3601;SDS011;1815;50.950;6.920;2023-03-01T15:18:43;6.32;;;3.95;;
3601;SDS011;1815;50.950;6.920;2023-03-01T15:21:24;6.32;;;4.65;;
3601;SDS011;1815;50.950;6.920;2023-03-01T15:29:20;6.78;;;4.95;;
3601;SDS011;1815;50.950;6.920;2023-03-01T15:34:59;6.93;;;4.93;;
3601;SDS011;1815;50.950;6.920;2023-03-01T15:37:38;8.15;;;4.35;;
3601;SDS011;1815;50.950;6.920;2023-03-01T15:40:23;7.32;;;5.43;;
3601;SDS011;1815;50.950;6.920;2023-03-01T15:42:57;7.60;;;6.15;;
3601;SDS011;1815;50.950;6.920;2023-03-01T15:45:28;9.45;;;5.38;;
3601;SDS011;1815;50.950;6.920;2023-03-01T15:50:56;5.05;;;4.15;;
3601;SDS011;1815;50.950;6.920;2023-03-01T15:56:32;6.28;;;4.70;;
3601;SDS011;1815;50.950;6.920;2023-03-01T15:59:01;5.20;;;4.37;;
3601;SDS011;1815;50.950;6.920;2023-03-01T16:01:28;5.22;;;3.97;;
3601;SDS011;1815;50.950;6.920;2023-03-01T16:03:54;7.20;;;4.00;;
3601;SDS011;1815;50.950;6.920;2023-03-01T16:06:21;5.72;;;4.82;;
3601;SDS011;1815;50.950;6.920;2023-03-01T16:08:47;7.80;;;4.90;;
3601;SDS011;1815;50.950;6.920;2023-03-01T16:11:14;5.83;;;4.10;;
3601;SDS011;1815;50.950;6.920;2023-03-01T16:13:44;7.00;;;4.65;;
3601;SDS011;1815;50.950;6.920;2023-03-01T16:16:10;4.18;;;3.78;;
3601;SDS011;1815;50.950;6.920;2023-03-01T16:18:40;5.30;;;3.67;;
3601;SDS011;1815;50.950;6.920;2023-03-01T16:21:09;7.68;;;4.60;;
3601;SDS011;1815;50.950;6.920;2023-03-01T16:27:27;6.72;;;4.20;;
3601;SDS011;1815;50.950;6.920;2023-03-01T16:29:53;4.67;;;3.37;;
3601;SDS011;1815;50.950;6.920;2023-03-01T16:32:18;6.90;;;4.97;;
3601;SDS011;1815;50.950;6.920;2023-03-01T16:34:44;7.30;;;4.97;;
3601;SDS011;1815;50.950;6.920;2023-03-01T16:37:10;6.80;;;4.87;;
3601;SDS011;1815;50.950;6.920;2023-03-01T16:39:37;6.70;;;4.40;;
3601;SDS011;1815;50.950;6.920;2023-03-01T16:42:03;6.53;;;3.90;;
3601;SDS011;1815;50.950;6.920;2023-03-01T16:44:29;6.70;;;3.70;;
3601;SDS011;1815;50.950;6.920;2023-03-01T16:46:55;6.47;;;4.40;;
3601;SDS011;1815;50.950;6.920;2023-03-01T16:49:21;6.47;;;4.80;;
3601;SDS011;1815;50.950;6.920;2023-03-01T16:51:46;4.80;;;3.53;;
3601;SDS011;1815;50.950;6.920;2023-03-01T16:54:12;5.23;;;4.10;;
3601;SDS011;1815;50.950;6.920;2023-03-01T16:56:38;6.50;;;3.90;;
3601;SDS011;1815;50.950;6.920;2023-03-01T16:59:04;6.30;;;4.78;;
3601;SDS011;1815;50.950;6.920;2023-03-01T17:01:30;7.20;;;3.55;;
3601;SDS011;1815;50.950;6.920;2023-03-01T17:04:02;4.70;;;3.70;;
3601;SDS011;1815;50.950;6.920;2023-03-01T17:06:28;5.60;;;4.50;;
3601;SDS011;1815;50.950;6.920;2023-03-01T17:08:54;8.07;;;4.90;;
3601;SDS011;1815;50.950;6.920;2023-03-01T17:11:22;4.63;;;3.70;;
3601;SDS011;1815;50.950;6.920;2023-03-01T17:13:47;4.60;;;3.67;;
3601;SDS011;1815;50.950;6.920;2023-03-01T17:16:14;6.30;;;3.25;;
3601;SDS011;1815;50.950;6.920;2023-03-01T17:18:41;4.80;;;3.60;;
3601;SDS011;1815;50.950;6.920;2023-03-01T17:21:07;5.00;;;3.50;;
3601;SDS011;1815;50.950;6.920;2023-03-01T17:23:35;6.47;;;4.20;;
3601;SDS011;1815;50.950;6.920;2023-03-01T17:26:05;4.75;;;3.55;;
3601;SDS011;1815;50.950;6.920;2023-03-01T17:28:32;6.20;;;4.72;;
3601;SDS011;1815;50.950;6.920;2023-03-01T17:30:59;6.18;;;3.45;;
3601;SDS011;1815;50.950;6.920;2023-03-01T17:33:26;6.45;;;3.90;;
3601;SDS011;1815;50.950;6.920;2023-03-01T17:35:55;5.65;;;3.75;;
3601;SDS011;1815;50.950;6.920;2023-03-01T17:38:21;5.78;;;5.15;;
3601;SDS011;1815;50.950;6.920;2023-03-01T17:40:47;5.80;;;3.90;;
3601;SDS011;1815;50.950;6.920;2023-03-01T17:43:14;5.75;;;4.10;;
3601;SDS011;1815;50.950;6.920;2023-03-01T17:45:41;4.88;;;3.83;;
3601;SDS011;1815;50.950;6.920;2023-03-01T17:48:11;4.82;;;4.00;;
3601;SDS011;1815;50.950;6.920;2023-03-01T17:50:38;5.70;;;3.90;;
3601;SDS011;1815;50.950;6.920;2023-03-01T17:53:07;5.75;;;4.22;;
3601;SDS011;1815;50.950;6.920;2023-03-01T17:55:34;9.07;;;3.65;;
3601;SDS011;1815;50.950;6.920;2023-03-01T17:58:01;5.47;;;4.60;;
3601;SDS011;1815;50.950;6.920;2023-03-01T18:00:27;7.35;;;4.60;;
3601;SDS011;1815;50.950;6.920;2023-03-01T18:02:53;7.10;;;4.50;;
3601;SDS011;1815;50.950;6.920;2023-03-01T18:05:19;6.43;;;4.60;;
3601;SDS011;1815;50.950;6.920;2023-03-01T18:07:45;6.20;;;4.57;;
3601;SDS011;1815;50.950;6.920;2023-03-01T18:10:11;7.00;;;4.40;;
3601;SDS011;1815;50.950;6.920;2023-03-01T18:12:37;7.15;;;4.55;;
3601;SDS011;1815;50.950;6.920;2023-03-01T18:15:04;6.63;;;3.95;;